sensor_id;sensor_type;location;lat;lon;timestamp;P1;durP1;ratioP1;P2;durP2;ratioP2
71715;SDS011;59568;52.128;5.434;2022-08-20T00:00:37;7.13;;;3.78;;
71715;SDS011;59568;52.128;5.434;2022-08-20T00:03:08;6.00;;;3.40;;
71715;SDS011;59568;52.128;5.434;2022-08-20T00:05:40;7.78;;;3.45;;
71715;SDS011;59568;52.128;5.434;2022-08-20T00:08:09;6.07;;;3.08;;
71715;SDS011;59568;52.128;5.434;2022-08-20T00:10:37;6.82;;;4.00;;
71715;SDS011;59568;52.128;5.434;2022-08-20T00:13:07;6.68;;;3.00;;
71715;SDS011;59568;52.128;5.434;2022-08-20T00:15:40;8.50;;;3.87;;
71715;SDS011;59568;52.128;5.434;2022-08-20T00:18:07;6.93;;;3.88;;
71715;SDS011;59568;52.128;5.434;2022-08-20T00:20:39;6.22;;;3.30;;
71715;SDS011;59568;52.128;5.434;2022-08-20T00:23:07;7.55;;;3.15;;
71715;SDS011;59568;52.128;5.434;2022-08-20T00:25:35;5.25;;;2.97;;
71715;SDS011;59568;52.128;5.434;2022-08-20T00:28:02;5.50;;;3.27;;
71715;SDS011;59568;52.128;5.434;2022-08-20T00:30:29;4.40;;;2.67;;
71715;SDS011;59568;52.128;5.434;2022-08-20T00:32:58;7.80;;;3.70;;
71715;SDS011;59568;52.128;5.434;2022-08-20T00:35:28;5.53;;;2.83;;
71715;SDS011;59568;52.128;5.434;2022-08-20T00:37:56;6.97;;;3.05;;
71715;SDS011;59568;52.128;5.434;2022-08-20T00:40:31;6.47;;;3.17;;
71715;SDS011;59568;52.128;5.434;2022-08-20T00:43:22;6.25;;;3.35;;
71715;SDS011;59568;52.128;5.434;2022-08-20T00:46:08;7.05;;;3.28;;
71715;SDS011;59568;52.128;5.434;2022-08-20T00:48:43;6.82;;;3.28;;
71715;SDS011;59568;52.128;5.434;2022-08-20T00:51:16;5.30;;;3.10;;
71715;SDS011;59568;52.128;5.434;2022-08-20T00:53:48;5.23;;;3.17;;
71715;SDS011;59568;52.128;5.434;2022-08-20T00:56:15;7.75;;;3.85;;
71715;SDS011;59568;52.128;5.434;2022-08-20T00:58:42;8.38;;;4.85;;
71715;SDS011;59568;52.128;5.434;2022-08-20T01:01:10;6.80;;;3.63;;
71715;SDS011;59568;52.128;5.434;2022-08-20T01:03:37;7.57;;;3.75;;
71715;SDS011;59568;52.128;5.434;2022-08-20T01:06:05;9.93;;;4.60;;
71715;SDS011;59568;52.128;5.434;2022-08-20T01:08:31;5.38;;;3.50;;
71715;SDS011;59568;52.128;5.434;2022-08-20T01:10:58;8.60;;;4.50;;
71715;SDS011;59568;52.128;5.434;2022-08-20T01:13:35;9.13;;;5.38;;
71715;SDS011;59568;52.128;5.434;2022-08-20T01:16:07;8.68;;;4.30;;
71715;SDS011;59568;52.128;5.434;2022-08-20T01:18:43;7.73;;;3.30;;
71715;SDS011;59568;52.128;5.434;2022-08-20T01:21:11;6.45;;;3.22;;
71715;SDS011;59568;52.128;5.434;2022-08-20T01:26:09;7.00;;;4.22;;
71715;SDS011;59568;52.128;5.434;2022-08-20T01:31:24;6.93;;;3.33;;
71715;SDS011;59568;52.128;5.434;2022-08-20T01:33:53;7.80;;;3.55;;
71715;SDS011;59568;52.128;5.434;2022-08-20T01:36:22;7.68;;;4.28;;
71715;SDS011;59568;52.128;5.434;2022-08-20T01:38:58;9.07;;;4.00;;
71715;SDS011;59568;52.128;5.434;2022-08-20T01:41:38;7.15;;;4.22;;
71715;SDS011;59568;52.128;5.434;2022-08-20T01:44:13;12.10;;;4.37;;
71715;SDS011;59568;52.128;5.434;2022-08-20T01:46:44;7.88;;;3.25;;
71715;SDS011;59568;52.128;5.434;2022-08-20T01:51:48;9.20;;;5.05;;
71715;SDS011;59568;52.128;5.434;2022-08-20T01:54:15;8.38;;;5.05;;
71715;SDS011;59568;52.128;5.434;2022-08-20T01:59:39;9.82;;;5.13;;
71715;SDS011;59568;52.128;5.434;2022-08-20T02:02:07;9.40;;;5.93;;
71715;SDS011;59568;52.128;5.434;2022-08-20T02:04:35;10.15;;;5.05;;
71715;SDS011;59568;52.128;5.434;2022-08-20T02:07:03;7.82;;;4.10;;
71715;SDS011;59568;52.128;5.434;2022-08-20T02:09:32;9.67;;;4.77;;
71715;SDS011;59568;52.128;5.434;2022-08-20T02:12:01;7.00;;;3.40;;
71715;SDS011;59568;52.128;5.434;2022-08-20T02:14:29;7.80;;;3.70;;
71715;SDS011;59568;52.128;5.434;2022-08-20T02:16:55;4.55;;;3.00;;
71715;SDS011;59568;52.128;5.434;2022-08-20T02:19:28;5.43;;;3.22;;
71715;SDS011;59568;52.128;5.434;2022-08-20T02:22:01;6.73;;;3.20;;
71715;SDS011;59568;52.128;5.434;2022-08-20T02:24:30;8.00;;;4.25;;
71715;SDS011;59568;52.128;5.434;2022-08-20T02:26:57;7.47;;;4.40;;
71715;SDS011;59568;52.128;5.434;2022-08-20T02:29:23;6.95;;;4.18;;
71715;SDS011;59568;52.128;5.434;2022-08-20T02:31:51;5.25;;;3.50;;
71715;SDS011;59568;52.128;5.434;2022-08-20T02:34:39;6.07;;;3.23;;
71715;SDS011;59568;52.128;5.434;2022-08-20T02:37:06;5.32;;;3.25;;
71715;SDS011;59568;52.128;5.434;2022-08-20T02:39:33;5.05;;;3.58;;
71715;SDS011;59568;52.128;5.434;2022-08-20T02:42:00;6.72;;;3.03;;
71715;SDS011;59568;52.128;5.434;2022-08-20T02:44:30;7.80;;;3.28;;
71715;SDS011;59568;52.128;5.434;2022-08-20T02:46:57;6.27;;;3.13;;
71715;SDS011;59568;52.128;5.434;2022-08-20T02:49:25;11.55;;;2.92;;
71715;SDS011;59568;52.128;5.434;2022-08-20T02:51:51;6.10;;;3.13;;
71715;SDS011;59568;52.128;5.434;2022-08-20T02:54:18;5.03;;;3.40;;
71715;SDS011;59568;52.128;5.434;2022-08-20T02:56:44;8.07;;;4.22;;
71715;SDS011;59568;52.128;5.434;2022-08-20T02:59:11;8.33;;;3.97;;
71715;SDS011;59568;52.128;5.434;2022-08-20T03:01:44;8.15;;;4.53;;
71715;SDS011;59568;52.128;5.434;2022-08-20T03:04:24;6.65;;;3.50;;
71715;SDS011;59568;52.128;5.434;2022-08-20T03:06:51;9.32;;;4.03;;
71715;SDS011;59568;52.128;5.434;2022-08-20T03:09:18;5.15;;;3.15;;
71715;SDS011;59568;52.128;5.434;2022-08-20T03:11:44;12.10;;;3.30;;
71715;SDS011;59568;52.128;5.434;2022-08-20T03:14:11;9.75;;;4.38;;
71715;SDS011;59568;52.128;5.434;2022-08-20T03:16:37;11.32;;;3.85;;
71715;SDS011;59568;52.128;5.434;2022-08-20T03:19:04;11.02;;;4.10;;
71715;SDS011;59568;52.128;5.434;2022-08-20T03:21:30;9.88;;;4.82;;
71715;SDS011;59568;52.128;5.434;2022-08-20T03:23:57;9.13;;;4.70;;
71715;SDS011;59568;52.128;5.434;2022-08-20T03:26:24;8.27;;;4.28;;
71715;SDS011;59568;52.128;5.434;2022-08-20T03:28:50;7.13;;;3.67;;
71715;SDS011;59568;52.128;5.434;2022-08-20T03:31:17;6.80;;;3.92;;
71715;SDS011;59568;52.128;5.434;2022-08-20T03:33:44;9.07;;;4.25;;
71715;SDS011;59568;52.128;5.434;2022-08-20T03:36:18;7.77;;;3.60;;
71715;SDS011;59568;52.128;5.434;2022-08-20T03:38:54;7.90;;;3.88;;
71715;SDS011;59568;52.128;5.434;2022-08-20T03:41:24;4.35;;;2.60;;
71715;SDS011;59568;52.128;5.434;2022-08-20T03:43:51;8.57;;;3.50;;
71715;SDS011;59568;52.128;5.434;2022-08-20T03:46:17;7.60;;;3.63;;
71715;SDS011;59568;52.128;5.434;2022-08-20T03:48:49;5.70;;;2.83;;
71715;SDS011;59568;52.128;5.434;2022-08-20T03:51:25;4.93;;;3.20;;
71715;SDS011;59568;52.128;5.434;2022-08-20T03:53:51;4.03;;;2.50;;
71715;SDS011;59568;52.128;5.434;2022-08-20T03:56:18;5.95;;;3.08;;
71715;SDS011;59568;52.128;5.434;2022-08-20T03:58:44;5.13;;;2.92;;
71715;SDS011;59568;52.128;5.434;2022-08-20T04:01:11;4.43;;;2.20;;
71715;SDS011;59568;52.128;5.434;2022-08-20T04:03:58;5.20;;;2.45;;
71715;SDS011;59568;52.128;5.434;2022-08-20T04:06:25;5.35;;;2.63;;
71715;SDS011;59568;52.128;5.434;2022-08-20T04:08:54;9.15;;;2.92;;
71715;SDS011;59568;52.128;5.434;2022-08-20T04:11:21;6.00;;;3.50;;
71715;SDS011;59568;52.128;5.434;2022-08-20T04:13:49;4.40;;;2.60;;
71715;SDS011;59568;52.128;5.434;2022-08-20T04:16:16;6.25;;;2.63;;
71715;SDS011;59568;52.128;5.434;2022-08-20T04:18:44;4.80;;;3.05;;
71715;SDS011;59568;52.128;5.434;2022-08-20T04:21:28;5.05;;;3.05;;
71715;SDS011;59568;52.128;5.434;2022-08-20T04:23:58;4.28;;;2.92;;
71715;SDS011;59568;52.128;5.434;2022-08-20T04:26:25;6.30;;;2.90;;
71715;SDS011;59568;52.128;5.434;2022-08-20T04:28:52;4.55;;;2.90;;
71715;SDS011;59568;52.128;5.434;2022-08-20T04:31:21;5.60;;;3.05;;
71715;SDS011;59568;52.128;5.434;2022-08-20T04:33:50;4.72;;;2.33;;
71715;SDS011;59568;52.128;5.434;2022-08-20T04:36:17;4.05;;;2.13;;
71715;SDS011;59568;52.128;5.434;2022-08-20T04:38:43;4.80;;;2.33;;
71715;SDS011;59568;52.128;5.434;2022-08-20T04:41:16;5.60;;;2.42;;
71715;SDS011;59568;52.128;5.434;2022-08-20T04:43:49;3.50;;;2.45;;
71715;SDS011;59568;52.128;5.434;2022-08-20T04:46:18;3.80;;;2.40;;
71715;SDS011;59568;52.128;5.434;2022-08-20T04:48:45;8.32;;;3.00;;
71715;SDS011;59568;52.128;5.434;2022-08-20T04:51:15;3.47;;;2.10;;
71715;SDS011;59568;52.128;5.434;2022-08-20T04:53:42;3.45;;;2.38;;
71715;SDS011;59568;52.128;5.434;2022-08-20T04:56:17;5.13;;;2.28;;
71715;SDS011;59568;52.128;5.434;2022-08-20T04:58:44;3.92;;;1.98;;
71715;SDS011;59568;52.128;5.434;2022-08-20T05:01:14;3.85;;;2.60;;
71715;SDS011;59568;52.128;5.434;2022-08-20T05:03:40;4.73;;;2.50;;
71715;SDS011;59568;52.128;5.434;2022-08-20T05:06:08;4.55;;;2.40;;
71715;SDS011;59568;52.128;5.434;2022-08-20T05:08:36;5.07;;;2.40;;
71715;SDS011;59568;52.128;5.434;2022-08-20T05:11:04;3.97;;;2.28;;
71715;SDS011;59568;52.128;5.434;2022-08-20T05:13:51;7.95;;;2.83;;
71715;SDS011;59568;52.128;5.434;2022-08-20T05:16:19;5.50;;;3.23;;
71715;SDS011;59568;52.128;5.434;2022-08-20T05:18:46;4.43;;;2.95;;
71715;SDS011;59568;52.128;5.434;2022-08-20T05:21:18;3.88;;;2.25;;
71715;SDS011;59568;52.128;5.434;2022-08-20T05:23:45;5.25;;;2.85;;
71715;SDS011;59568;52.128;5.434;2022-08-20T05:26:12;3.67;;;2.35;;
71715;SDS011;59568;52.128;5.434;2022-08-20T05:28:41;8.10;;;3.20;;
71715;SDS011;59568;52.128;5.434;2022-08-20T05:31:24;7.10;;;3.17;;
71715;SDS011;59568;52.128;5.434;2022-08-20T05:34:08;4.43;;;2.70;;
71715;SDS011;59568;52.128;5.434;2022-08-20T05:36:37;5.32;;;2.80;;
71715;SDS011;59568;52.128;5.434;2022-08-20T05:39:06;4.18;;;2.63;;
71715;SDS011;59568;52.128;5.434;2022-08-20T05:41:34;4.17;;;1.97;;
71715;SDS011;59568;52.128;5.434;2022-08-20T05:44:01;3.80;;;2.20;;
71715;SDS011;59568;52.128;5.434;2022-08-20T05:46:29;3.60;;;2.30;;
71715;SDS011;59568;52.128;5.434;2022-08-20T05:48:57;3.42;;;2.20;;
71715;SDS011;59568;52.128;5.434;2022-08-20T05:51:26;4.07;;;3.00;;
71715;SDS011;59568;52.128;5.434;2022-08-20T05:53:53;4.37;;;2.60;;
71715;SDS011;59568;52.128;5.434;2022-08-20T05:56:23;3.33;;;2.38;;
71715;SDS011;59568;52.128;5.434;2022-08-20T05:58:52;4.28;;;2.05;;
71715;SDS011;59568;52.128;5.434;2022-08-20T06:01:18;3.75;;;2.08;;
71715;SDS011;59568;52.128;5.434;2022-08-20T06:03:45;5.20;;;3.03;;
71715;SDS011;59568;52.128;5.434;2022-08-20T06:06:30;3.17;;;2.47;;
71715;SDS011;59568;52.128;5.434;2022-08-20T06:09:11;3.97;;;2.40;;
71715;SDS011;59568;52.128;5.434;2022-08-20T06:11:38;3.65;;;2.45;;
71715;SDS011;59568;52.128;5.434;2022-08-20T06:14:05;4.85;;;2.85;;
71715;SDS011;59568;52.128;5.434;2022-08-20T06:16:32;5.47;;;2.45;;
71715;SDS011;59568;52.128;5.434;2022-08-20T06:18:58;5.80;;;3.50;;
71715;SDS011;59568;52.128;5.434;2022-08-20T06:21:28;6.05;;;3.10;;
71715;SDS011;59568;52.128;5.434;2022-08-20T06:23:55;5.53;;;2.80;;
71715;SDS011;59568;52.128;5.434;2022-08-20T06:26:26;6.38;;;3.08;;
71715;SDS011;59568;52.128;5.434;2022-08-20T06:28:55;7.70;;;2.85;;
71715;SDS011;59568;52.128;5.434;2022-08-20T06:31:21;5.77;;;2.20;;
71715;SDS011;59568;52.128;5.434;2022-08-20T06:33:48;3.60;;;2.38;;
71715;SDS011;59568;52.128;5.434;2022-08-20T06:36:15;4.25;;;2.47;;
71715;SDS011;59568;52.128;5.434;2022-08-20T06:38:44;4.78;;;1.60;;
71715;SDS011;59568;52.128;5.434;2022-08-20T06:41:11;8.38;;;2.40;;
71715;SDS011;59568;52.128;5.434;2022-08-20T06:43:39;5.80;;;2.07;;
71715;SDS011;59568;52.128;5.434;2022-08-20T06:46:05;6.28;;;2.10;;
71715;SDS011;59568;52.128;5.434;2022-08-20T06:48:32;3.85;;;2.15;;
71715;SDS011;59568;52.128;5.434;2022-08-20T06:50:59;5.32;;;1.60;;
71715;SDS011;59568;52.128;5.434;2022-08-20T06:53:26;6.07;;;2.10;;
71715;SDS011;59568;52.128;5.434;2022-08-20T06:55:54;4.83;;;1.80;;
71715;SDS011;59568;52.128;5.434;2022-08-20T06:58:25;4.25;;;1.90;;
71715;SDS011;59568;52.128;5.434;2022-08-20T07:01:04;4.03;;;1.45;;
71715;SDS011;59568;52.128;5.434;2022-08-20T07:03:37;4.30;;;1.30;;
71715;SDS011;59568;52.128;5.434;2022-08-20T07:06:04;5.55;;;1.60;;
71715;SDS011;59568;52.128;5.434;2022-08-20T07:08:31;3.50;;;1.50;;
71715;SDS011;59568;52.128;5.434;2022-08-20T07:10:58;12.40;;;1.60;;
71715;SDS011;59568;52.128;5.434;2022-08-20T07:13:25;7.28;;;1.45;;
71715;SDS011;59568;52.128;5.434;2022-08-20T07:15:52;5.85;;;1.20;;
71715;SDS011;59568;52.128;5.434;2022-08-20T07:18:19;3.65;;;1.20;;
71715;SDS011;59568;52.128;5.434;2022-08-20T07:20:54;7.43;;;1.00;;
71715;SDS011;59568;52.128;5.434;2022-08-20T07:23:23;6.50;;;1.23;;
71715;SDS011;59568;52.128;5.434;2022-08-20T07:25:51;6.90;;;1.05;;
71715;SDS011;59568;52.128;5.434;2022-08-20T07:28:19;6.95;;;0.82;;
71715;SDS011;59568;52.128;5.434;2022-08-20T07:30:48;4.57;;;1.33;;
71715;SDS011;59568;52.128;5.434;2022-08-20T07:33:39;6.93;;;1.00;;
71715;SDS011;59568;52.128;5.434;2022-08-20T07:36:06;6.10;;;1.13;;
71715;SDS011;59568;52.128;5.434;2022-08-20T07:38:34;11.63;;;2.55;;
71715;SDS011;59568;52.128;5.434;2022-08-20T07:41:06;5.80;;;1.30;;
71715;SDS011;59568;52.128;5.434;2022-08-20T07:43:38;6.30;;;0.90;;
71715;SDS011;59568;52.128;5.434;2022-08-20T07:46:06;5.50;;;0.83;;
71715;SDS011;59568;52.128;5.434;2022-08-20T07:48:37;10.05;;;1.05;;
71715;SDS011;59568;52.128;5.434;2022-08-20T07:51:08;6.18;;;1.23;;
71715;SDS011;59568;52.128;5.434;2022-08-20T07:53:36;3.63;;;0.75;;
71715;SDS011;59568;52.128;5.434;2022-08-20T07:56:10;4.75;;;0.88;;
71715;SDS011;59568;52.128;5.434;2022-08-20T07:58:43;6.60;;;0.90;;
71715;SDS011;59568;52.128;5.434;2022-08-20T08:01:25;4.95;;;0.63;;
71715;SDS011;59568;52.128;5.434;2022-08-20T08:03:54;4.03;;;0.70;;
71715;SDS011;59568;52.128;5.434;2022-08-20T08:06:22;4.72;;;0.75;;
71715;SDS011;59568;52.128;5.434;2022-08-20T08:09:06;4.18;;;0.57;;
71715;SDS011;59568;52.128;5.434;2022-08-20T08:11:35;4.70;;;0.60;;
71715;SDS011;59568;52.128;5.434;2022-08-20T08:14:06;7.05;;;0.70;;
71715;SDS011;59568;52.128;5.434;2022-08-20T08:16:35;7.38;;;1.48;;
71715;SDS011;59568;52.128;5.434;2022-08-20T08:19:03;5.47;;;0.80;;
71715;SDS011;59568;52.128;5.434;2022-08-20T08:21:31;4.65;;;0.55;;
71715;SDS011;59568;52.128;5.434;2022-08-20T08:23:58;5.30;;;0.70;;
71715;SDS011;59568;52.128;5.434;2022-08-20T08:26:24;5.15;;;0.80;;
71715;SDS011;59568;52.128;5.434;2022-08-20T08:28:54;5.10;;;0.80;;
71715;SDS011;59568;52.128;5.434;2022-08-20T08:31:20;5.43;;;0.80;;
71715;SDS011;59568;52.128;5.434;2022-08-20T08:33:47;6.38;;;0.60;;
71715;SDS011;59568;52.128;5.434;2022-08-20T08:36:14;6.40;;;0.80;;
71715;SDS011;59568;52.128;5.434;2022-08-20T08:38:42;6.57;;;0.70;;
71715;SDS011;59568;52.128;5.434;2022-08-20T08:41:17;6.32;;;0.80;;
71715;SDS011;59568;52.128;5.434;2022-08-20T08:44:03;3.00;;;0.50;;
71715;SDS011;59568;52.128;5.434;2022-08-20T08:46:40;3.78;;;0.90;;
71715;SDS011;59568;52.128;5.434;2022-08-20T08:49:10;3.90;;;0.60;;
71715;SDS011;59568;52.128;5.434;2022-08-20T08:52:26;5.32;;;0.60;;
71715;SDS011;59568;52.128;5.434;2022-08-20T08:54:49;4.20;;;0.63;;
71715;SDS011;59568;52.128;5.434;2022-08-20T08:57:18;4.78;;;0.55;;
71715;SDS011;59568;52.128;5.434;2022-08-20T08:59:47;2.75;;;0.60;;
71715;SDS011;59568;52.128;5.434;2022-08-20T09:02:31;5.30;;;0.70;;
71715;SDS011;59568;52.128;5.434;2022-08-20T09:05:02;6.10;;;0.70;;
71715;SDS011;59568;52.128;5.434;2022-08-20T09:07:38;6.22;;;1.17;;
71715;SDS011;59568;52.128;5.434;2022-08-20T09:10:05;6.28;;;0.60;;
71715;SDS011;59568;52.128;5.434;2022-08-20T09:12:32;4.25;;;0.60;;
71715;SDS011;59568;52.128;5.434;2022-08-20T09:14:59;5.80;;;0.60;;
71715;SDS011;59568;52.128;5.434;2022-08-20T09:17:26;2.55;;;0.40;;
71715;SDS011;59568;52.128;5.434;2022-08-20T09:19:53;4.18;;;0.75;;
71715;SDS011;59568;52.128;5.434;2022-08-20T09:22:21;3.05;;;0.40;;
71715;SDS011;59568;52.128;5.434;2022-08-20T09:24:51;5.18;;;0.60;;
71715;SDS011;59568;52.128;5.434;2022-08-20T09:27:18;4.60;;;0.47;;
71715;SDS011;59568;52.128;5.434;2022-08-20T09:29:44;7.30;;;0.68;;
71715;SDS011;59568;52.128;5.434;2022-08-20T09:32:18;5.18;;;0.50;;
71715;SDS011;59568;52.128;5.434;2022-08-20T09:34:47;2.40;;;0.40;;
71715;SDS011;59568;52.128;5.434;2022-08-20T09:37:25;7.72;;;0.47;;
71715;SDS011;59568;52.128;5.434;2022-08-20T09:39:59;3.93;;;0.60;;
71715;SDS011;59568;52.128;5.434;2022-08-20T09:42:30;6.72;;;0.60;;
71715;SDS011;59568;52.128;5.434;2022-08-20T09:45:06;3.33;;;0.77;;
71715;SDS011;59568;52.128;5.434;2022-08-20T09:47:36;3.25;;;0.50;;
71715;SDS011;59568;52.128;5.434;2022-08-20T09:50:09;3.72;;;0.40;;
71715;SDS011;59568;52.128;5.434;2022-08-20T09:52:37;5.10;;;0.50;;
71715;SDS011;59568;52.128;5.434;2022-08-20T09:55:17;4.63;;;0.50;;
71715;SDS011;59568;52.128;5.434;2022-08-20T09:57:47;2.60;;;0.60;;
71715;SDS011;59568;52.128;5.434;2022-08-20T10:00:16;5.55;;;0.40;;
71715;SDS011;59568;52.128;5.434;2022-08-20T10:02:43;3.88;;;0.52;;
71715;SDS011;59568;52.128;5.434;2022-08-20T10:05:11;7.63;;;0.60;;
71715;SDS011;59568;52.128;5.434;2022-08-20T10:07:38;3.50;;;0.40;;
71715;SDS011;59568;52.128;5.434;2022-08-20T10:10:06;3.55;;;0.50;;
71715;SDS011;59568;52.128;5.434;2022-08-20T10:12:35;3.63;;;0.50;;
71715;SDS011;59568;52.128;5.434;2022-08-20T10:15:02;3.58;;;0.40;;
71715;SDS011;59568;52.128;5.434;2022-08-20T10:17:29;3.30;;;0.50;;
71715;SDS011;59568;52.128;5.434;2022-08-20T10:19:55;4.45;;;0.40;;
71715;SDS011;59568;52.128;5.434;2022-08-20T10:22:22;4.63;;;0.40;;
71715;SDS011;59568;52.128;5.434;2022-08-20T10:24:49;4.47;;;0.55;;
71715;SDS011;59568;52.128;5.434;2022-08-20T10:27:16;3.72;;;0.50;;
71715;SDS011;59568;52.128;5.434;2022-08-20T10:29:42;5.37;;;0.50;;
71715;SDS011;59568;52.128;5.434;2022-08-20T10:32:13;5.15;;;0.65;;
71715;SDS011;59568;52.128;5.434;2022-08-20T10:34:41;4.10;;;0.55;;
71715;SDS011;59568;52.128;5.434;2022-08-20T10:37:13;8.18;;;0.45;;
71715;SDS011;59568;52.128;5.434;2022-08-20T10:39:41;5.18;;;0.50;;
71715;SDS011;59568;52.128;5.434;2022-08-20T10:42:07;3.47;;;0.43;;
71715;SDS011;59568;52.128;5.434;2022-08-20T10:44:34;4.40;;;0.88;;
71715;SDS011;59568;52.128;5.434;2022-08-20T10:47:18;5.35;;;1.30;;
71715;SDS011;59568;52.128;5.434;2022-08-20T10:49:55;3.88;;;0.40;;
71715;SDS011;59568;52.128;5.434;2022-08-20T10:52:23;4.70;;;0.60;;
71715;SDS011;59568;52.128;5.434;2022-08-20T10:54:51;5.87;;;0.63;;
71715;SDS011;59568;52.128;5.434;2022-08-20T10:57:24;5.55;;;0.70;;
71715;SDS011;59568;52.128;5.434;2022-08-20T10:59:54;3.88;;;0.60;;
71715;SDS011;59568;52.128;5.434;2022-08-20T11:02:22;4.38;;;0.50;;
71715;SDS011;59568;52.128;5.434;2022-08-20T11:04:50;6.50;;;0.68;;
71715;SDS011;59568;52.128;5.434;2022-08-20T11:07:24;3.53;;;0.53;;
71715;SDS011;59568;52.128;5.434;2022-08-20T11:10:15;4.25;;;0.65;;
71715;SDS011;59568;52.128;5.434;2022-08-20T11:12:41;7.85;;;0.73;;
71715;SDS011;59568;52.128;5.434;2022-08-20T11:15:11;5.18;;;0.95;;
71715;SDS011;59568;52.128;5.434;2022-08-20T11:17:39;7.57;;;0.80;;
71715;SDS011;59568;52.128;5.434;2022-08-20T11:20:08;5.20;;;0.70;;
71715;SDS011;59568;52.128;5.434;2022-08-20T11:22:35;4.03;;;0.90;;
71715;SDS011;59568;52.128;5.434;2022-08-20T11:25:03;4.00;;;0.90;;
71715;SDS011;59568;52.128;5.434;2022-08-20T11:27:33;4.30;;;1.00;;
71715;SDS011;59568;52.128;5.434;2022-08-20T11:30:05;2.45;;;0.68;;
71715;SDS011;59568;52.128;5.434;2022-08-20T11:32:33;4.40;;;0.57;;
71715;SDS011;59568;52.128;5.434;2022-08-20T11:35:00;6.90;;;0.65;;
71715;SDS011;59568;52.128;5.434;2022-08-20T11:37:47;4.07;;;0.50;;
71715;SDS011;59568;52.128;5.434;2022-08-20T11:40:13;3.97;;;0.70;;
71715;SDS011;59568;52.128;5.434;2022-08-20T11:42:40;5.32;;;0.57;;
71715;SDS011;59568;52.128;5.434;2022-08-20T11:45:26;5.40;;;0.50;;
71715;SDS011;59568;52.128;5.434;2022-08-20T11:47:53;3.53;;;0.50;;
71715;SDS011;59568;52.128;5.434;2022-08-20T11:50:20;8.27;;;0.88;;
71715;SDS011;59568;52.128;5.434;2022-08-20T11:52:47;3.78;;;0.52;;
71715;SDS011;59568;52.128;5.434;2022-08-20T11:55:14;5.22;;;0.63;;
71715;SDS011;59568;52.128;5.434;2022-08-20T11:57:43;6.57;;;0.57;;
71715;SDS011;59568;52.128;5.434;2022-08-20T12:00:16;3.28;;;0.65;;
71715;SDS011;59568;52.128;5.434;2022-08-20T12:02:57;5.93;;;0.70;;
71715;SDS011;59568;52.128;5.434;2022-08-20T12:05:25;4.82;;;0.60;;
71715;SDS011;59568;52.128;5.434;2022-08-20T12:07:52;4.43;;;0.50;;
71715;SDS011;59568;52.128;5.434;2022-08-20T12:10:19;3.63;;;0.50;;
71715;SDS011;59568;52.128;5.434;2022-08-20T12:12:45;4.97;;;0.70;;
71715;SDS011;59568;52.128;5.434;2022-08-20T12:15:12;5.47;;;0.60;;
71715;SDS011;59568;52.128;5.434;2022-08-20T12:17:38;3.72;;;0.63;;
71715;SDS011;59568;52.128;5.434;2022-08-20T12:20:07;4.88;;;0.68;;
71715;SDS011;59568;52.128;5.434;2022-08-20T12:22:35;3.43;;;0.50;;
71715;SDS011;59568;52.128;5.434;2022-08-20T12:25:02;2.90;;;0.50;;
71715;SDS011;59568;52.128;5.434;2022-08-20T12:27:31;6.70;;;1.20;;
71715;SDS011;59568;52.128;5.434;2022-08-20T12:29:59;6.90;;;0.80;;
71715;SDS011;59568;52.128;5.434;2022-08-20T12:32:33;5.18;;;0.50;;
71715;SDS011;59568;52.128;5.434;2022-08-20T12:35:00;5.73;;;0.60;;
71715;SDS011;59568;52.128;5.434;2022-08-20T12:37:28;3.35;;;0.52;;
71715;SDS011;59568;52.128;5.434;2022-08-20T12:39:57;3.53;;;0.65;;
71715;SDS011;59568;52.128;5.434;2022-08-20T12:42:26;3.88;;;0.80;;
71715;SDS011;59568;52.128;5.434;2022-08-20T12:44:55;6.80;;;0.70;;
71715;SDS011;59568;52.128;5.434;2022-08-20T12:47:24;4.13;;;0.40;;
71715;SDS011;59568;52.128;5.434;2022-08-20T12:49:58;4.20;;;0.60;;
71715;SDS011;59568;52.128;5.434;2022-08-20T12:52:27;4.63;;;0.60;;
71715;SDS011;59568;52.128;5.434;2022-08-20T12:54:55;2.88;;;0.60;;
71715;SDS011;59568;52.128;5.434;2022-08-20T12:59:49;4.23;;;0.60;;
71715;SDS011;59568;52.128;5.434;2022-08-20T13:02:16;5.70;;;0.88;;
71715;SDS011;59568;52.128;5.434;2022-08-20T13:04:45;3.75;;;0.68;;
71715;SDS011;59568;52.128;5.434;2022-08-20T13:07:12;5.78;;;0.73;;
71715;SDS011;59568;52.128;5.434;2022-08-20T13:09:40;3.50;;;0.85;;
71715;SDS011;59568;52.128;5.434;2022-08-20T13:12:08;6.00;;;0.60;;
71715;SDS011;59568;52.128;5.434;2022-08-20T13:14:35;5.35;;;0.80;;
71715;SDS011;59568;52.128;5.434;2022-08-20T13:17:03;5.60;;;1.00;;
71715;SDS011;59568;52.128;5.434;2022-08-20T13:19:32;6.47;;;1.02;;
71715;SDS011;59568;52.128;5.434;2022-08-20T13:21:59;3.05;;;1.00;;
71715;SDS011;59568;52.128;5.434;2022-08-20T13:24:26;5.30;;;1.10;;
71715;SDS011;59568;52.128;5.434;2022-08-20T13:26:53;5.15;;;0.82;;
71715;SDS011;59568;52.128;5.434;2022-08-20T13:29:19;5.25;;;0.85;;
71715;SDS011;59568;52.128;5.434;2022-08-20T13:31:46;4.97;;;0.93;;
71715;SDS011;59568;52.128;5.434;2022-08-20T13:34:12;4.25;;;1.10;;
71715;SDS011;59568;52.128;5.434;2022-08-20T13:36:39;5.27;;;0.73;;
71715;SDS011;59568;52.128;5.434;2022-08-20T13:39:06;6.68;;;1.27;;
71715;SDS011;59568;52.128;5.434;2022-08-20T13:41:33;4.13;;;0.75;;
71715;SDS011;59568;52.128;5.434;2022-08-20T13:43:59;5.75;;;1.05;;
71715;SDS011;59568;52.128;5.434;2022-08-20T13:46:26;5.13;;;0.80;;
71715;SDS011;59568;52.128;5.434;2022-08-20T13:48:53;4.43;;;1.00;;
71715;SDS011;59568;52.128;5.434;2022-08-20T13:51:19;4.15;;;1.00;;
71715;SDS011;59568;52.128;5.434;2022-08-20T13:53:46;5.80;;;1.25;;
71715;SDS011;59568;52.128;5.434;2022-08-20T13:56:13;4.82;;;0.90;;
71715;SDS011;59568;52.128;5.434;2022-08-20T13:58:40;7.50;;;1.60;;
71715;SDS011;59568;52.128;5.434;2022-08-20T14:01:06;5.47;;;1.10;;
71715;SDS011;59568;52.128;5.434;2022-08-20T14:03:33;4.25;;;1.00;;
71715;SDS011;59568;52.128;5.434;2022-08-20T14:06:01;4.78;;;1.08;;
71715;SDS011;59568;52.128;5.434;2022-08-20T14:08:28;4.05;;;0.93;;
71715;SDS011;59568;52.128;5.434;2022-08-20T14:10:55;4.90;;;1.02;;
71715;SDS011;59568;52.128;5.434;2022-08-20T14:13:23;5.60;;;0.93;;
71715;SDS011;59568;52.128;5.434;2022-08-20T14:15:51;4.97;;;0.68;;
71715;SDS011;59568;52.128;5.434;2022-08-20T14:18:18;7.05;;;0.90;;
71715;SDS011;59568;52.128;5.434;2022-08-20T14:20:45;5.95;;;0.70;;
71715;SDS011;59568;52.128;5.434;2022-08-20T14:23:12;3.45;;;0.70;;
71715;SDS011;59568;52.128;5.434;2022-08-20T14:25:39;4.27;;;0.40;;
71715;SDS011;59568;52.128;5.434;2022-08-20T14:28:13;5.50;;;0.90;;
71715;SDS011;59568;52.128;5.434;2022-08-20T14:30:43;6.15;;;0.70;;
71715;SDS011;59568;52.128;5.434;2022-08-20T14:33:17;3.97;;;0.80;;
71715;SDS011;59568;52.128;5.434;2022-08-20T14:35:44;3.45;;;0.88;;
71715;SDS011;59568;52.128;5.434;2022-08-20T14:38:10;7.07;;;0.63;;
71715;SDS011;59568;52.128;5.434;2022-08-20T14:40:37;4.30;;;0.70;;
71715;SDS011;59568;52.128;5.434;2022-08-20T14:43:03;6.68;;;1.50;;
71715;SDS011;59568;52.128;5.434;2022-08-20T14:45:30;3.63;;;0.63;;
71715;SDS011;59568;52.128;5.434;2022-08-20T14:47:56;3.72;;;0.70;;
71715;SDS011;59568;52.128;5.434;2022-08-20T14:50:26;4.07;;;0.53;;
71715;SDS011;59568;52.128;5.434;2022-08-20T14:52:55;6.85;;;0.88;;
71715;SDS011;59568;52.128;5.434;2022-08-20T14:55:24;5.63;;;1.05;;
71715;SDS011;59568;52.128;5.434;2022-08-20T14:57:53;6.95;;;0.88;;
71715;SDS011;59568;52.128;5.434;2022-08-20T15:00:22;5.93;;;1.00;;
71715;SDS011;59568;52.128;5.434;2022-08-20T15:02:50;4.63;;;0.80;;
71715;SDS011;59568;52.128;5.434;2022-08-20T15:05:17;7.40;;;0.90;;
71715;SDS011;59568;52.128;5.434;2022-08-20T15:07:45;4.90;;;0.82;;
71715;SDS011;59568;52.128;5.434;2022-08-20T15:10:35;5.72;;;0.98;;
71715;SDS011;59568;52.128;5.434;2022-08-20T15:13:01;7.47;;;0.80;;
71715;SDS011;59568;52.128;5.434;2022-08-20T15:15:28;5.97;;;0.70;;